KDUA/DUA METAR and TAF weather

Enter ICAO airport designator
Station Type Date Time Source
KDUA METAR 2022/11/26 09:15 UTC NOAA

KDUA 260915Z AUTO 06006KT 1 3/4SM DZ OVC004 12/10 A3006 RMK AO2


Station Type Date Time Source
KDUA Decoded METAR 2022/11/26 09:15 UTC NOAA

Durant, Eaker Field Airport, OK, United States (KDUA) 33-56-32N 096-23-40W
Nov 26, 2022 - 04:15 AM EST / 2022.11.26 0915 UTC
Wind: from the ENE (060 degrees) at 7 MPH (6 KT):0
Visibility: 1 3/4 mile(s):0
Sky conditions: overcast
Weather: drizzle
Temperature: 53 F (12 C)
Dew Point: 50 F (10 C)
Relative Humidity: 87%
Pressure (altimeter): 30.06 in. Hg (1017 hPa)
ob: KDUA 260915Z AUTO 06006KT 1 3/4SM DZ OVC004 12/10 A3006 RMK AO2
cycle: 9

Station Type Date Time Source
KDUA TAF UTC NOAA

Error!

Example: see airport list